createdAt,value
2019-04-22T00:02:13.859Z,25.43
2019-04-22T00:04:55.067Z,25.10
2019-04-22T00:07:42.248Z,27.30
2019-04-22T00:10:13.453Z,26.42
2019-04-22T00:12:47.309Z,25.80
2019-04-22T00:15:10.009Z,24.98
2019-04-22T00:17:54.452Z,28.60
2019-04-22T00:20:24.315Z,23.75
2019-04-22T00:22:51.872Z,29.25
2019-04-22T00:25:26.578Z,29.42
2019-04-22T00:27:59.072Z,32.50
2019-04-22T00:30:25.479Z,29.23
2019-04-22T00:33:00.698Z,30.52
2019-04-22T00:35:30.462Z,27.42
2019-04-22T00:40:39.945Z,29.67
2019-04-22T00:43:13.835Z,26.55
2019-04-22T00:45:44.573Z,25.88
2019-04-22T00:48:17.815Z,27.35
2019-04-22T00:50:46.692Z,30.65
2019-04-22T00:56:05.520Z,27.40
2019-04-22T00:58:39.391Z,26.87
2019-04-22T01:01:15.356Z,29.12
2019-04-22T01:06:16.014Z,33.30
2019-04-22T01:08:53.042Z,32.17
2019-04-22T01:11:22.709Z,32.78
2019-04-22T01:13:53.312Z,32.25
2019-04-22T01:16:23.345Z,28.32
2019-04-22T01:18:55.170Z,30.37
2019-04-22T01:21:28.927Z,29.92
2019-04-22T01:23:52.228Z,32.70
2019-04-22T01:26:29.908Z,31.35
2019-04-22T01:28:58.872Z,29.35
2019-04-22T01:31:21.924Z,28.12
2019-04-22T01:34:05.483Z,33.50
2019-04-22T01:36:43.151Z,31.42
2019-04-22T01:39:16.748Z,27.65
2019-04-22T01:41:55.217Z,30.12
2019-04-22T01:44:29.704Z,28.52
2019-04-22T01:46:58.263Z,30.20
2019-04-22T01:49:27.689Z,29.20
2019-04-22T01:52:11.396Z,37.33
2019-04-22T01:54:35.147Z,29.90
2019-04-22T01:56:58.411Z,35.48
2019-04-22T01:59:27.228Z,29.32
2019-04-22T02:02:07.776Z,37.17
2019-04-22T02:04:39.758Z,35.70
2019-04-22T02:07:14.061Z,32.33
2019-04-22T02:12:17.298Z,35.43
2019-04-22T02:17:17.668Z,35.17
2019-04-22T02:19:45.558Z,34.73
2019-04-22T02:22:27.593Z,33.20
2019-04-22T02:27:30.710Z,41.92
2019-04-22T02:29:58.215Z,33.20
2019-04-22T02:32:38.923Z,35.55
2019-04-22T02:40:06.158Z,35.88
2019-04-22T02:42:24.857Z,38.08
2019-04-22T02:45:04.623Z,39.53
2019-04-22T02:47:54.021Z,40.05
2019-04-22T02:50:07.327Z,37.63
2019-04-22T02:55:11.515Z,40.95
2019-04-22T03:00:29.330Z,41.00
2019-04-22T03:03:09.123Z,39.18
2019-04-22T03:05:17.805Z,37.13
2019-04-22T03:07:55.951Z,41.05
2019-04-22T03:10:25.919Z,38.95
2019-04-22T03:13:18.458Z,41.33
2019-04-22T03:15:23.996Z,41.20
2019-04-22T03:18:04.598Z,39.78
2019-04-22T03:20:42.606Z,42.83
2019-04-22T03:23:11.480Z,41.73
2019-04-22T03:25:51.500Z,41.35
2019-04-22T03:27:50.570Z,43.35
2019-04-22T03:33:12.465Z,46.75
2019-04-22T03:35:44.770Z,48.17
2019-04-22T03:38:18.144Z,43.08
2019-04-22T03:40:48.811Z,46.25
2019-04-22T03:43:36.206Z,47.05
2019-04-22T03:45:42.138Z,47.48
2019-04-22T03:48:15.935Z,44.90
2019-04-22T03:50:37.261Z,42.93
2019-04-22T03:53:38.692Z,47.88
2019-04-22T03:55:57.574Z,48.10
2019-04-22T03:58:12.177Z,50.63
2019-04-22T04:00:55.854Z,47.75
2019-04-22T04:03:22.294Z,45.73
2019-04-22T04:10:53.379Z,45.75
2019-04-22T04:16:00.837Z,50.65
2019-04-22T04:18:46.800Z,48.95
2019-04-22T04:21:22.697Z,51.90
2019-04-22T04:23:52.424Z,50.73
2019-04-22T04:26:19.585Z,51.42
2019-04-22T04:31:25.032Z,54.75
2019-04-22T04:33:50.967Z,56.95
2019-04-22T04:38:58.216Z,56.85
2019-04-22T04:46:37.675Z,52.95
2019-04-22T04:49:17.791Z,58.25
2019-04-22T04:51:33.805Z,54.60
2019-04-22T04:54:15.157Z,54.80
2019-04-22T04:56:36.317Z,56.60
2019-04-22T05:01:44.630Z,60.05
2019-04-22T05:06:54.747Z,61.18
2019-04-22T05:09:16.754Z,55.45
2019-04-22T05:12:01.870Z,57.67
2019-04-22T05:14:26.828Z,58.75
2019-04-22T05:16:49.429Z,57.83
2019-04-22T05:19:16.051Z,56.90
2019-04-22T05:21:48.626Z,55.45
2019-04-22T05:26:52.372Z,63.10
2019-04-22T05:29:23.464Z,55.55
2019-04-22T05:34:22.798Z,59.77
2019-04-22T05:36:55.392Z,55.35
2019-04-22T05:39:26.550Z,55.33
2019-04-22T05:41:54.859Z,66.45
2019-04-22T05:44:29.482Z,58.45
2019-04-22T05:46:53.212Z,59.15
2019-04-22T05:49:31.278Z,58.42
2019-04-22T05:52:08.771Z,60.28
2019-04-22T05:54:35.160Z,59.95
2019-04-22T05:57:09.332Z,60.45
2019-04-22T05:59:40.403Z,56.33
2019-04-22T06:02:14.757Z,58.78
2019-04-22T06:04:47.595Z,57.08
2019-04-22T06:07:13.683Z,57.10
2019-04-22T06:09:39.142Z,59.98
2019-04-22T06:12:12.353Z,59.30
2019-04-22T06:14:54.022Z,56.92
2019-04-22T06:17:24.732Z,58.78
2019-04-22T06:19:57.653Z,57.45
2019-04-22T06:22:37.157Z,53.95
2019-04-22T06:25:00.801Z,53.60
2019-04-22T06:27:38.648Z,48.35
2019-04-22T06:30:04.956Z,45.50
2019-04-22T06:32:31.408Z,43.73
2019-04-22T06:35:18.491Z,44.90
2019-04-22T06:37:43.298Z,41.65
2019-04-22T06:40:14.479Z,41.42
2019-04-22T06:42:56.609Z,38.38
2019-04-22T06:45:18.870Z,34.58
2019-04-22T06:50:24.201Z,31.42
2019-04-22T06:52:54.488Z,31.90
2019-04-22T06:55:21.118Z,33.92
2019-04-22T06:57:53.269Z,30.77
2019-04-22T07:00:24.758Z,28.57
2019-04-22T07:03:26.943Z,28.32
2019-04-22T07:05:27.911Z,32.08
2019-04-22T07:08:05.126Z,29.60
2019-04-22T07:10:43.675Z,27.73
2019-04-22T07:13:01.464Z,30.70
2019-04-22T07:15:46.438Z,25.32
2019-04-22T07:18:11.564Z,24.80
2019-04-22T07:20:44.551Z,25.82
2019-04-22T07:23:15.514Z,26.05
2019-04-22T07:28:17.854Z,24.87
2019-04-22T07:30:44.619Z,25.60
2019-04-22T07:33:19.605Z,27.22
2019-04-22T07:38:25.592Z,23.90
2019-04-22T07:40:57.663Z,22.10
2019-04-22T07:45:56.496Z,20.52
2019-04-22T07:48:33.249Z,22.00
2019-04-22T07:51:13.497Z,21.17
2019-04-22T07:53:32.435Z,20.92
2019-04-22T07:56:05.129Z,18.17
2019-04-22T07:58:38.848Z,19.42
2019-04-22T08:01:08.830Z,22.10
2019-04-22T08:03:47.067Z,24.12
2019-04-22T08:06:13.720Z,21.23
2019-04-22T08:08:38.791Z,21.52
2019-04-22T08:11:30.905Z,18.62
2019-04-22T08:13:42.544Z,19.77
2019-04-22T08:16:33.890Z,19.92
2019-04-22T08:18:46.779Z,18.87
2019-04-22T08:21:20.023Z,17.02
2019-04-22T08:23:56.865Z,16.62
2019-04-22T08:26:27.425Z,18.62
2019-04-22T08:29:03.902Z,18.32
2019-04-22T08:31:38.546Z,17.65
2019-04-22T08:34:12.085Z,16.93
2019-04-22T08:36:41.045Z,17.50
2019-04-22T08:42:23.465Z,17.15
2019-04-22T08:45:04.897Z,13.20
2019-04-22T08:47:27.395Z,18.00
2019-04-22T08:52:57.564Z,17.35
2019-04-22T08:55:12.939Z,14.80
2019-04-22T08:58:06.440Z,12.47
2019-04-22T09:00:16.540Z,13.40
2019-04-22T09:03:08.961Z,15.00
2019-04-22T09:05:53.569Z,11.38
2019-04-22T09:08:14.159Z,10.78
2019-04-22T09:10:44.239Z,12.10
2019-04-22T09:13:14.538Z,11.97
2019-04-22T09:16:08.884Z,12.13
2019-04-22T09:18:57.465Z,13.72
2019-04-22T09:27:03.950Z,10.53
2019-04-22T09:29:34.428Z,14.63
2019-04-22T09:32:06.848Z,13.05
2019-04-22T09:34:43.403Z,10.82
2019-04-22T09:37:23.669Z,14.18
2019-04-22T09:39:41.089Z,9.00
2019-04-22T09:48:18.785Z,12.70
2019-04-22T09:50:47.898Z,12.65
2019-04-22T09:53:16.100Z,10.53
2019-04-22T09:56:12.213Z,9.83
2019-04-22T09:59:02.386Z,7.72
2019-04-22T10:01:34.112Z,10.65
2019-04-22T10:07:23.541Z,6.40
2019-04-22T10:12:46.806Z,8.70
2019-04-22T10:16:02.637Z,8.15
2019-04-22T10:18:34.072Z,8.30
2019-04-22T10:21:08.376Z,6.60
2019-04-22T10:23:41.217Z,10.15
2019-04-22T10:34:50.884Z,8.60
2019-04-22T10:37:25.246Z,7.97
2019-04-22T10:40:09.517Z,9.83
2019-04-22T10:42:45.352Z,9.33
2019-04-22T10:45:18.529Z,9.95
2019-04-22T10:47:52.348Z,12.35
2019-04-22T10:51:18.886Z,8.13
2019-04-22T10:56:46.673Z,12.43
2019-04-22T10:59:18.647Z,11.97
2019-04-22T11:11:41.546Z,6.87
2019-04-22T11:14:10.661Z,8.75
2019-04-22T11:16:43.571Z,8.68
2019-04-22T11:19:23.468Z,7.78
2019-04-22T11:22:05.110Z,10.72
2019-04-22T11:24:26.868Z,10.55
2019-04-22T11:26:57.082Z,10.72
2019-04-22T11:29:27.910Z,7.35
2019-04-22T11:31:57.969Z,11.88
2019-04-22T11:34:28.988Z,8.73
2019-04-22T11:36:59.110Z,10.13
2019-04-22T11:39:34.128Z,7.97
2019-04-22T11:42:02.446Z,8.70
2019-04-22T11:44:32.963Z,12.85
2019-04-22T11:47:03.396Z,9.63
2019-04-22T11:49:34.192Z,10.85
2019-04-22T11:52:06.553Z,15.72
2019-04-22T11:54:36.811Z,15.25
2019-04-22T11:57:07.460Z,9.60
2019-04-22T11:59:38.519Z,7.62
2019-04-22T12:02:08.998Z,13.15
2019-04-22T12:04:40.139Z,8.93
2019-04-22T12:07:10.935Z,11.05
2019-04-22T12:09:44.150Z,10.00
2019-04-22T12:12:15.997Z,9.98
2019-04-22T12:14:48.013Z,8.70
2019-04-22T12:17:18.192Z,9.88
2019-04-22T12:19:50.397Z,7.90
2019-04-22T12:22:22.948Z,12.37
2019-04-22T12:24:53.070Z,10.45
2019-04-22T12:27:26.784Z,10.08
2019-04-22T12:29:56.797Z,10.90
2019-04-22T12:32:33.547Z,8.30
2019-04-22T12:37:43.005Z,8.90
2019-04-22T12:40:08.752Z,7.08
2019-04-22T12:42:39.849Z,9.65
2019-04-22T12:45:12.167Z,7.80
2019-04-22T12:47:42.260Z,10.50
2019-04-22T12:50:24.077Z,6.80
2019-04-22T12:52:56.786Z,10.85
2019-04-22T12:55:21.901Z,7.62
2019-04-22T12:57:53.933Z,11.88
2019-04-22T13:00:26.718Z,13.68
2019-04-22T13:02:56.874Z,10.78
2019-04-22T13:05:31.420Z,10.50
2019-04-22T13:08:02.019Z,12.10
2019-04-22T13:10:42.960Z,6.42
2019-04-22T13:13:05.019Z,17.98
2019-04-22T13:15:36.908Z,12.45
2019-04-22T13:18:16.975Z,13.00
2019-04-22T13:20:42.148Z,6.40
2019-04-22T13:23:13.834Z,7.70
2019-04-22T13:25:50.253Z,11.22
2019-04-22T13:28:21.110Z,7.30
2019-04-22T13:30:52.755Z,9.15
2019-04-22T13:33:23.376Z,9.83
2019-04-22T13:35:54.338Z,5.83
2019-04-22T13:38:24.945Z,7.72
2019-04-22T13:41:05.541Z,8.50
2019-04-22T13:43:34.845Z,10.80
2019-04-22T13:46:06.323Z,9.38
2019-04-22T13:48:59.039Z,6.53
2019-04-22T13:51:50.730Z,7.58
2019-04-22T13:54:42.485Z,7.22
2019-04-22T13:56:37.095Z,6.72
2019-04-22T13:59:01.852Z,9.70
2019-04-22T14:01:24.817Z,10.18
2019-04-22T14:04:00.783Z,7.17
2019-04-22T14:06:31.113Z,10.35
2019-04-22T14:09:01.341Z,8.88
2019-04-22T14:11:36.632Z,9.65
2019-04-22T14:14:05.290Z,8.60
2019-04-22T14:16:35.408Z,10.10
2019-04-22T14:19:05.677Z,8.38
2019-04-22T14:21:38.782Z,12.68
2019-04-22T14:24:10.658Z,9.00
2019-04-22T14:26:52.056Z,6.50
2019-04-22T14:29:11.444Z,8.75
2019-04-22T14:31:42.475Z,11.15
2019-04-22T14:34:21.367Z,7.47
2019-04-22T14:36:57.257Z,8.40
2019-04-22T14:39:33.732Z,7.97
2019-04-22T14:42:36.461Z,6.03
2019-04-22T14:48:01.429Z,6.92
2019-04-22T14:50:38.837Z,11.55
2019-04-22T14:53:14.448Z,7.00
2019-04-22T14:55:36.000Z,9.08
2019-04-22T14:58:04.772Z,12.90
2019-04-22T15:00:37.994Z,8.50
2019-04-22T15:03:10.040Z,9.98
2019-04-22T15:05:40.163Z,9.80
2019-04-22T15:08:13.018Z,9.55
2019-04-22T15:10:44.518Z,7.03
2019-04-22T15:13:25.410Z,8.50
2019-04-22T15:18:51.671Z,5.75
2019-04-22T15:21:24.795Z,6.70
2019-04-22T15:23:58.232Z,10.25
2019-04-22T15:26:34.634Z,7.87
2019-04-22T15:29:05.272Z,12.15
2019-04-22T15:31:35.583Z,7.62
2019-04-22T15:34:07.163Z,8.53
2019-04-22T15:36:38.242Z,8.80
2019-04-22T15:39:11.285Z,6.25
2019-04-22T15:41:55.613Z,10.53
2019-04-22T15:44:15.460Z,6.30
2019-04-22T15:46:46.983Z,7.53
2019-04-22T15:49:18.163Z,7.10
2019-04-22T15:51:48.947Z,6.50
2019-04-22T15:54:19.365Z,6.00
2019-04-22T15:56:54.814Z,8.98
2019-04-22T15:59:44.748Z,7.50
2019-04-22T16:02:00.067Z,10.45
2019-04-22T16:04:28.633Z,10.72
2019-04-22T16:07:01.219Z,8.53
2019-04-22T16:09:33.261Z,10.75
2019-04-22T16:12:30.841Z,7.37
2019-04-22T16:14:56.954Z,10.32
2019-04-22T16:17:28.564Z,9.60
2019-04-22T16:19:59.323Z,7.15
2019-04-22T16:22:34.344Z,7.22
2019-04-22T16:25:09.070Z,7.37
2019-04-22T16:27:40.843Z,8.90
2019-04-22T16:30:13.157Z,7.40
2019-04-22T16:32:43.468Z,7.30
2019-04-22T16:35:16.792Z,7.72
2019-04-22T16:37:48.564Z,9.20
2019-04-22T16:40:18.992Z,8.35
2019-04-22T16:42:58.106Z,10.68
2019-04-22T16:45:21.870Z,12.78
2019-04-22T16:47:51.691Z,14.05
2019-04-22T16:50:25.193Z,11.55
2019-04-22T16:52:55.201Z,9.75
2019-04-22T16:55:26.479Z,8.88
2019-04-22T16:57:56.744Z,12.53
2019-04-22T17:00:28.919Z,8.65
2019-04-22T17:03:12.978Z,10.70
2019-04-22T17:06:03.573Z,10.40
2019-04-22T17:08:34.759Z,11.70
2019-04-22T17:11:05.580Z,11.35
2019-04-22T17:13:40.363Z,10.80
2019-04-22T17:16:16.122Z,9.40
2019-04-22T17:18:52.109Z,9.73
2019-04-22T17:21:27.894Z,8.95
2019-04-22T17:24:01.347Z,9.85
2019-04-22T17:26:38.799Z,8.33
2019-04-22T17:29:10.522Z,9.08
2019-04-22T17:31:48.455Z,7.85
2019-04-22T17:34:16.114Z,8.23
2019-04-22T17:36:49.145Z,7.55
2019-04-22T17:39:32.263Z,8.65
2019-04-22T17:42:15.687Z,6.00
2019-04-22T17:44:56.024Z,9.25
2019-04-22T17:47:23.662Z,7.33
2019-04-22T17:50:01.566Z,10.45
2019-04-22T17:52:40.997Z,9.25
2019-04-22T17:55:07.524Z,8.95
2019-04-22T17:57:39.203Z,12.18
2019-04-22T18:00:17.208Z,7.12
2019-04-22T18:02:51.446Z,9.08
2019-04-22T18:05:13.097Z,6.92
2019-04-22T18:08:08.455Z,8.75
2019-04-22T18:10:42.565Z,10.28
2019-04-22T18:13:20.549Z,8.85
2019-04-22T18:15:47.060Z,6.10
2019-04-22T18:18:19.098Z,10.85
2019-04-22T18:20:41.186Z,7.53
2019-04-22T18:23:06.737Z,11.00
2019-04-22T18:25:53.769Z,11.40
2019-04-22T18:28:23.885Z,6.85
2019-04-22T18:30:48.512Z,8.38
2019-04-22T18:33:24.206Z,10.58
2019-04-22T18:35:54.023Z,5.53
2019-04-22T18:38:41.133Z,5.55
2019-04-22T18:41:01.304Z,7.58
2019-04-22T18:43:35.293Z,8.08
2019-04-22T18:48:33.445Z,7.90
2019-04-22T18:51:24.910Z,7.45
2019-04-22T18:54:13.439Z,10.65
2019-04-22T18:56:45.270Z,7.87
2019-04-22T18:59:02.156Z,8.80
2019-04-22T19:01:24.113Z,7.87
2019-04-22T19:04:04.682Z,7.12
2019-04-22T19:06:56.152Z,8.95
2019-04-22T19:09:29.474Z,7.72
2019-04-22T19:12:07.952Z,6.00
2019-04-22T19:14:29.363Z,5.12
2019-04-22T19:17:07.940Z,7.90
2019-04-22T19:19:35.040Z,6.42
2019-04-22T19:22:02.173Z,10.35
2019-04-22T19:24:31.912Z,7.67
2019-04-22T19:27:02.126Z,7.17
2019-04-22T19:29:39.236Z,6.53
2019-04-22T19:32:07.235Z,6.72
2019-04-22T19:34:38.507Z,6.67
2019-04-22T19:37:09.542Z,7.55
2019-04-22T19:39:43.047Z,9.10
2019-04-22T19:42:27.056Z,9.80
2019-04-22T19:44:53.221Z,6.83
2019-04-22T19:47:30.288Z,6.55
2019-04-22T19:49:58.154Z,5.08
2019-04-22T19:52:28.867Z,6.35
2019-04-22T19:54:57.309Z,5.25
2019-04-22T19:57:22.598Z,6.78
2019-04-22T20:00:01.621Z,8.23
2019-04-22T20:03:03.670Z,9.75
2019-04-22T20:05:37.488Z,8.33
2019-04-22T20:08:07.307Z,7.25
2019-04-22T20:10:40.089Z,7.00
2019-04-22T20:13:16.514Z,6.97
2019-04-22T20:15:34.474Z,5.65
2019-04-22T20:20:49.050Z,7.33
2019-04-22T20:23:10.455Z,6.40
2019-04-22T20:25:43.598Z,6.97
2019-04-22T20:28:19.674Z,8.33
2019-04-22T20:30:51.102Z,7.78
2019-04-22T20:33:29.126Z,6.35
2019-04-22T20:35:58.195Z,6.78
2019-04-22T20:38:25.458Z,6.92
2019-04-22T20:40:55.036Z,7.67
2019-04-22T20:43:40.391Z,5.62
2019-04-22T20:46:05.279Z,5.70
2019-04-22T20:48:40.802Z,5.92
2019-04-22T20:51:07.667Z,11.28
2019-04-22T20:53:44.178Z,7.30
2019-04-22T20:56:12.823Z,5.60
2019-04-22T20:58:46.537Z,5.78
2019-04-22T21:01:09.401Z,7.92
2019-04-22T21:03:33.261Z,4.87
2019-04-22T21:06:16.533Z,8.73
2019-04-22T21:08:46.860Z,8.40
2019-04-22T21:11:19.371Z,11.35
2019-04-22T21:13:48.628Z,6.85
2019-04-22T21:16:27.012Z,5.45
2019-04-22T21:18:46.130Z,7.00
2019-04-22T21:21:31.687Z,5.10
2019-04-22T21:23:53.979Z,8.10
2019-04-22T21:26:29.052Z,6.95
2019-04-22T21:29:05.464Z,8.08
2019-04-22T21:31:38.586Z,6.70
2019-04-22T21:34:06.755Z,5.55
2019-04-22T21:36:41.477Z,7.47
2019-04-22T21:39:08.248Z,8.55
2019-04-22T21:41:39.100Z,11.55
2019-04-22T21:44:14.231Z,7.15
2019-04-22T21:46:51.063Z,6.92
2019-04-22T21:49:25.429Z,4.95
2019-04-22T21:51:53.330Z,6.33
2019-04-22T21:54:28.268Z,7.83
2019-04-22T21:57:07.748Z,7.62
2019-04-22T21:59:32.094Z,3.90
2019-04-22T22:02:12.308Z,7.70
2019-04-22T22:04:38.641Z,7.22
2019-04-22T22:06:59.641Z,6.65
2019-04-22T22:09:43.962Z,5.50
2019-04-22T22:12:11.217Z,6.42
2019-04-22T22:14:50.031Z,6.78
2019-04-22T22:17:22.355Z,12.82
2019-04-22T22:19:52.924Z,6.72
2019-04-22T22:22:41.878Z,5.85
2019-04-22T22:24:57.024Z,7.45
2019-04-22T22:27:30.100Z,5.15
2019-04-22T22:30:19.249Z,6.53
2019-04-22T22:32:35.131Z,4.90
2019-04-22T22:35:03.471Z,6.75
2019-04-22T22:37:27.268Z,13.72
2019-04-22T22:39:57.984Z,10.23
2019-04-22T22:42:30.167Z,6.53
2019-04-22T22:45:04.005Z,9.90
2019-04-22T22:47:41.694Z,7.25
2019-04-22T22:50:15.963Z,5.58
2019-04-22T22:55:22.262Z,4.97
2019-04-22T22:57:56.753Z,9.00
2019-04-22T23:00:22.232Z,8.03
2019-04-22T23:03:12.517Z,7.62
2019-04-22T23:05:30.586Z,4.45
2019-04-22T23:07:59.039Z,5.53
2019-04-22T23:10:34.230Z,4.83
2019-04-22T23:13:06.882Z,6.05
2019-04-22T23:15:28.358Z,4.10
2019-04-22T23:17:47.904Z,7.33
2019-04-22T23:20:28.860Z,6.90
2019-04-22T23:23:13.735Z,6.67
2019-04-22T23:25:56.740Z,6.42
2019-04-22T23:28:20.843Z,5.33
2019-04-22T23:31:01.948Z,5.47
2019-04-22T23:33:42.312Z,9.25
2019-04-22T23:36:13.610Z,4.78
2019-04-22T23:38:59.274Z,9.33
2019-04-22T23:41:52.486Z,7.28
2019-04-22T23:44:15.942Z,8.60
2019-04-22T23:46:38.273Z,5.97
2019-04-22T23:49:11.820Z,3.98
2019-04-22T23:52:04.963Z,6.75
2019-04-22T23:54:35.889Z,5.55
2019-04-22T23:56:52.577Z,7.40
